sensor_id;sensor_type;location;lat;lon;timestamp;pressure;altitude;pressure_sealevel;temperature;humidity
48824;BME280;34640;53.590;10.054;2022-08-11T00:02:10;102080.19;;;18.85;83.80
48824;BME280;34640;53.590;10.054;2022-08-11T00:04:46;102081.03;;;18.84;84.35
48824;BME280;34640;53.590;10.054;2022-08-11T00:07:20;102082.69;;;18.82;84.30
48824;BME280;34640;53.590;10.054;2022-08-11T00:09:54;102073.72;;;18.79;84.25
48824;BME280;34640;53.590;10.054;2022-08-11T00:12:28;102066.44;;;18.73;85.02
48824;BME280;34640;53.590;10.054;2022-08-11T00:15:02;102078.50;;;18.68;85.01
48824;BME280;34640;53.590;10.054;2022-08-11T00:17:37;102079.28;;;18.66;85.39
48824;BME280;34640;53.590;10.054;2022-08-11T00:20:14;102076.28;;;18.59;85.95
48824;BME280;34640;53.590;10.054;2022-08-11T00:22:49;102082.38;;;18.58;86.12
48824;BME280;34640;53.590;10.054;2022-08-11T00:25:22;102076.97;;;18.55;86.38
48824;BME280;34640;53.590;10.054;2022-08-11T00:27:56;102080.16;;;18.48;86.72
48824;BME280;34640;53.590;10.054;2022-08-11T00:30:37;102078.28;;;18.46;86.90
48824;BME280;34640;53.590;10.054;2022-08-11T00:33:12;102082.56;;;18.44;87.25
48824;BME280;34640;53.590;10.054;2022-08-11T00:35:45;102085.09;;;18.42;87.49
48824;BME280;34640;53.590;10.054;2022-08-11T00:38:32;102079.69;;;18.39;87.39
48824;BME280;34640;53.590;10.054;2022-08-11T00:41:15;102078.69;;;18.37;87.88
48824;BME280;34640;53.590;10.054;2022-08-11T00:44:09;102085.84;;;18.40;87.67
48824;BME280;34640;53.590;10.054;2022-08-11T00:46:54;102079.47;;;18.35;88.19
48824;BME280;34640;53.590;10.054;2022-08-11T00:49:38;102081.03;;;18.31;88.59
48824;BME280;34640;53.590;10.054;2022-08-11T00:52:25;102080.81;;;18.26;88.67
48824;BME280;34640;53.590;10.054;2022-08-11T00:55:31;102082.31;;;18.21;88.83
48824;BME280;34640;53.590;10.054;2022-08-11T00:58:43;102083.06;;;18.19;88.93
48824;BME280;34640;53.590;10.054;2022-08-11T01:01:32;102080.41;;;18.19;89.34
48824;BME280;34640;53.590;10.054;2022-08-11T01:04:42;102083.88;;;18.18;89.48
48824;BME280;34640;53.590;10.054;2022-08-11T01:10:47;102083.44;;;18.09;90.35
48824;BME280;34640;53.590;10.054;2022-08-11T01:17:19;102080.25;;;17.98;91.17
48824;BME280;34640;53.590;10.054;2022-08-11T01:20:14;102088.06;;;17.96;91.26
48824;BME280;34640;53.590;10.054;2022-08-11T01:24:08;102076.63;;;17.96;91.49
48824;BME280;34640;53.590;10.054;2022-08-11T01:30:33;102089.44;;;17.88;92.23
48824;BME280;34640;53.590;10.054;2022-08-11T01:39:29;102087.13;;;17.78;93.13
48824;BME280;34640;53.590;10.054;2022-08-11T01:45:31;102084.34;;;17.75;93.66
48824;BME280;34640;53.590;10.054;2022-08-11T01:48:14;102084.19;;;17.72;93.95
48824;BME280;34640;53.590;10.054;2022-08-11T01:51:00;102079.66;;;17.69;94.27
48824;BME280;34640;53.590;10.054;2022-08-11T01:53:50;102087.38;;;17.66;94.74
48824;BME280;34640;53.590;10.054;2022-08-11T01:56:32;102083.84;;;17.66;94.68
48824;BME280;34640;53.590;10.054;2022-08-11T01:59:14;102089.94;;;17.65;95.07
48824;BME280;34640;53.590;10.054;2022-08-11T02:01:56;102081.13;;;17.64;95.19
48824;BME280;34640;53.590;10.054;2022-08-11T02:04:39;102078.25;;;17.60;95.63
48824;BME280;34640;53.590;10.054;2022-08-11T02:07:21;102076.38;;;17.57;95.66
48824;BME280;34640;53.590;10.054;2022-08-11T02:10:15;102076.19;;;17.54;95.91
48824;BME280;34640;53.590;10.054;2022-08-11T02:13:14;102075.94;;;17.50;96.03
48824;BME280;34640;53.590;10.054;2022-08-11T02:16:10;102069.63;;;17.46;96.16
48824;BME280;34640;53.590;10.054;2022-08-11T02:18:51;102064.34;;;17.46;96.63
48824;BME280;34640;53.590;10.054;2022-08-11T02:21:45;102066.91;;;17.45;96.57
48824;BME280;34640;53.590;10.054;2022-08-11T02:24:44;102070.38;;;17.44;96.81
48824;BME280;34640;53.590;10.054;2022-08-11T02:27:22;102060.50;;;17.39;96.93
48824;BME280;34640;53.590;10.054;2022-08-11T02:29:57;102063.97;;;17.38;97.05
48824;BME280;34640;53.590;10.054;2022-08-11T02:32:38;102063.81;;;17.35;97.01
48824;BME280;34640;53.590;10.054;2022-08-11T02:35:39;102055.63;;;17.31;97.36
48824;BME280;34640;53.590;10.054;2022-08-11T02:38:20;102067.72;;;17.27;97.81
48824;BME280;34640;53.590;10.054;2022-08-11T02:41:01;102068.31;;;17.22;98.24
48824;BME280;34640;53.590;10.054;2022-08-11T02:44:14;102064.69;;;17.20;98.43
48824;BME280;34640;53.590;10.054;2022-08-11T02:46:57;102063.72;;;17.18;99.07
48824;BME280;34640;53.590;10.054;2022-08-11T02:49:43;102062.81;;;17.17;99.08
48824;BME280;34640;53.590;10.054;2022-08-11T02:52:42;102065.16;;;17.13;99.43
48824;BME280;34640;53.590;10.054;2022-08-11T02:55:21;102064.84;;;17.06;100.00
48824;BME280;34640;53.590;10.054;2022-08-11T02:58:23;102068.06;;;17.01;100.00
48824;BME280;34640;53.590;10.054;2022-08-11T03:01:09;102056.53;;;16.99;100.00
48824;BME280;34640;53.590;10.054;2022-08-11T03:03:49;102064.38;;;16.97;100.00
48824;BME280;34640;53.590;10.054;2022-08-11T03:06:32;102061.66;;;16.96;100.00
48824;BME280;34640;53.590;10.054;2022-08-11T03:09:13;102056.38;;;16.96;100.00
48824;BME280;34640;53.590;10.054;2022-08-11T03:11:54;102064.19;;;16.94;100.00
48824;BME280;34640;53.590;10.054;2022-08-11T03:14:55;102062.31;;;16.92;100.00
48824;BME280;34640;53.590;10.054;2022-08-11T03:18:01;102054.22;;;16.89;100.00
48824;BME280;34640;53.590;10.054;2022-08-11T03:20:41;102060.31;;;16.88;100.00
48824;BME280;34640;53.590;10.054;2022-08-11T03:23:22;102061.03;;;16.85;100.00
48824;BME280;34640;53.590;10.054;2022-08-11T03:26:04;102066.38;;;16.87;100.00
48824;BME280;34640;53.590;10.054;2022-08-11T03:28:44;102067.22;;;16.86;100.00
48824;BME280;34640;53.590;10.054;2022-08-11T03:31:22;102067.88;;;16.82;100.00
48824;BME280;34640;53.590;10.054;2022-08-11T03:34:02;102063.25;;;16.77;100.00
48824;BME280;34640;53.590;10.054;2022-08-11T03:37:04;102057.75;;;16.73;100.00
48824;BME280;34640;53.590;10.054;2022-08-11T03:39:56;102065.44;;;16.70;100.00
48824;BME280;34640;53.590;10.054;2022-08-11T03:42:42;102063.56;;;16.67;100.00
48824;BME280;34640;53.590;10.054;2022-08-11T03:45:24;102068.81;;;16.67;100.00
48824;BME280;34640;53.590;10.054;2022-08-11T03:48:06;102065.28;;;16.67;100.00
48824;BME280;34640;53.590;10.054;2022-08-11T03:51:00;102060.81;;;16.66;100.00
48824;BME280;34640;53.590;10.054;2022-08-11T03:54:09;102063.56;;;16.67;100.00
48824;BME280;34640;53.590;10.054;2022-08-11T03:57:25;102066.19;;;16.67;100.00
48824;BME280;34640;53.590;10.054;2022-08-11T04:00:22;102060.03;;;16.67;100.00
48824;BME280;34640;53.590;10.054;2022-08-11T04:06:43;102067.09;;;16.68;100.00
48824;BME280;34640;53.590;10.054;2022-08-11T04:12:38;102068.06;;;16.70;100.00
48824;BME280;34640;53.590;10.054;2022-08-11T04:19:17;102081.34;;;16.71;100.00
48824;BME280;34640;53.590;10.054;2022-08-11T04:22:21;102069.81;;;16.69;100.00
48824;BME280;34640;53.590;10.054;2022-08-11T04:25:28;102061.91;;;16.69;100.00
48824;BME280;34640;53.590;10.054;2022-08-11T04:28:48;102064.53;;;16.69;100.00
48824;BME280;34640;53.590;10.054;2022-08-11T04:31:36;102068.19;;;16.71;100.00
48824;BME280;34640;53.590;10.054;2022-08-11T04:34:36;102061.53;;;16.78;100.00
48824;BME280;34640;53.590;10.054;2022-08-11T04:40:48;102064.94;;;16.92;100.00
48824;BME280;34640;53.590;10.054;2022-08-11T04:43:49;102058.19;;;16.97;100.00
48824;BME280;34640;53.590;10.054;2022-08-11T04:47:03;102059.25;;;17.00;100.00
48824;BME280;34640;53.590;10.054;2022-08-11T04:49:57;102067.25;;;17.02;100.00
48824;BME280;34640;53.590;10.054;2022-08-11T04:53:21;102058.69;;;17.06;100.00
48824;BME280;34640;53.590;10.054;2022-08-11T04:56:17;102060.03;;;17.14;100.00
48824;BME280;34640;53.590;10.054;2022-08-11T04:59:40;102066.28;;;17.16;100.00
48824;BME280;34640;53.590;10.054;2022-08-11T05:03:11;102064.03;;;17.24;100.00
48824;BME280;34640;53.590;10.054;2022-08-11T05:05:55;102067.06;;;17.31;100.00
48824;BME280;34640;53.590;10.054;2022-08-11T05:09:11;102067.50;;;17.39;100.00
48824;BME280;34640;53.590;10.054;2022-08-11T05:12:14;102064.13;;;17.41;100.00
48824;BME280;34640;53.590;10.054;2022-08-11T05:14:52;102068.78;;;17.47;100.00
48824;BME280;34640;53.590;10.054;2022-08-11T05:17:51;102069.19;;;17.55;100.00
48824;BME280;34640;53.590;10.054;2022-08-11T05:20:49;102069.44;;;17.59;100.00
48824;BME280;34640;53.590;10.054;2022-08-11T05:23:46;102068.03;;;17.66;100.00
48824;BME280;34640;53.590;10.054;2022-08-11T05:26:49;102074.47;;;17.71;100.00
48824;BME280;34640;53.590;10.054;2022-08-11T05:29:46;102075.88;;;17.81;99.96
48824;BME280;34640;53.590;10.054;2022-08-11T05:32:39;102072.72;;;17.88;99.52
48824;BME280;34640;53.590;10.054;2022-08-11T05:35:39;102073.09;;;17.95;99.21
48824;BME280;34640;53.590;10.054;2022-08-11T05:38:35;102072.00;;;18.08;97.86
48824;BME280;34640;53.590;10.054;2022-08-11T05:41:28;102076.94;;;18.20;97.16
48824;BME280;34640;53.590;10.054;2022-08-11T05:44:22;102072.22;;;18.48;95.37
48824;BME280;34640;53.590;10.054;2022-08-11T05:47:21;102072.81;;;18.78;94.01
48824;BME280;34640;53.590;10.054;2022-08-11T05:50:14;102064.44;;;19.26;90.46
48824;BME280;34640;53.590;10.054;2022-08-11T05:53:09;102072.91;;;19.56;88.09
48824;BME280;34640;53.590;10.054;2022-08-11T05:56:13;102077.31;;;19.76;86.32
48824;BME280;34640;53.590;10.054;2022-08-11T05:58:51;102083.13;;;19.88;85.87
48824;BME280;34640;53.590;10.054;2022-08-11T06:01:28;102081.81;;;19.98;85.74
48824;BME280;34640;53.590;10.054;2022-08-11T06:04:05;102077.72;;;20.06;85.48
48824;BME280;34640;53.590;10.054;2022-08-11T06:06:54;102084.94;;;20.10;85.51
48824;BME280;34640;53.590;10.054;2022-08-11T06:09:31;102081.59;;;20.14;84.42
48824;BME280;34640;53.590;10.054;2022-08-11T06:12:06;102084.16;;;20.12;84.42
48824;BME280;34640;53.590;10.054;2022-08-11T06:14:41;102082.09;;;20.05;83.37
48824;BME280;34640;53.590;10.054;2022-08-11T06:17:21;102088.56;;;20.12;82.61
48824;BME280;34640;53.590;10.054;2022-08-11T06:19:58;102079.00;;;20.15;83.04
48824;BME280;34640;53.590;10.054;2022-08-11T06:22:38;102078.16;;;20.17;83.61
48824;BME280;34640;53.590;10.054;2022-08-11T06:25:13;102081.97;;;20.23;83.32
48824;BME280;34640;53.590;10.054;2022-08-11T06:27:53;102080.38;;;20.27;82.89
48824;BME280;34640;53.590;10.054;2022-08-11T06:30:37;102080.78;;;20.37;80.75
48824;BME280;34640;53.590;10.054;2022-08-11T06:33:16;102086.81;;;20.54;80.46
48824;BME280;34640;53.590;10.054;2022-08-11T06:35:56;102089.13;;;20.67;78.16
48824;BME280;34640;53.590;10.054;2022-08-11T06:38:48;102087.19;;;21.08;75.60
48824;BME280;34640;53.590;10.054;2022-08-11T06:41:29;102087.13;;;21.29;73.97
48824;BME280;34640;53.590;10.054;2022-08-11T06:44:15;102086.94;;;21.24;73.63
48824;BME280;34640;53.590;10.054;2022-08-11T06:46:51;102093.97;;;21.24;72.88
48824;BME280;34640;53.590;10.054;2022-08-11T06:49:36;102086.84;;;21.23;72.13
48824;BME280;34640;53.590;10.054;2022-08-11T06:52:29;102083.63;;;21.30;71.75
48824;BME280;34640;53.590;10.054;2022-08-11T06:55:11;102089.59;;;21.24;72.04
48824;BME280;34640;53.590;10.054;2022-08-11T06:58:12;102089.94;;;21.33;71.53
48824;BME280;34640;53.590;10.054;2022-08-11T07:01:06;102087.81;;;21.47;70.41
48824;BME280;34640;53.590;10.054;2022-08-11T07:03:44;102095.59;;;21.68;68.02
48824;BME280;34640;53.590;10.054;2022-08-11T07:06:29;102094.22;;;21.78;67.19
48824;BME280;34640;53.590;10.054;2022-08-11T07:09:35;102084.59;;;21.81;67.94
48824;BME280;34640;53.590;10.054;2022-08-11T07:12:39;102083.81;;;21.84;67.28
48824;BME280;34640;53.590;10.054;2022-08-11T07:15:32;102089.31;;;21.90;67.25
48824;BME280;34640;53.590;10.054;2022-08-11T07:18:38;102086.91;;;21.96;67.36
48824;BME280;34640;53.590;10.054;2022-08-11T07:21:33;102089.38;;;22.15;64.65
48824;BME280;34640;53.590;10.054;2022-08-11T07:24:35;102084.16;;;22.18;64.86
48824;BME280;34640;53.590;10.054;2022-08-11T07:27:36;102090.50;;;22.23;63.60
48824;BME280;34640;53.590;10.054;2022-08-11T07:30:33;102092.78;;;22.38;63.90
48824;BME280;34640;53.590;10.054;2022-08-11T07:33:10;102093.88;;;22.45;63.92
48824;BME280;34640;53.590;10.054;2022-08-11T07:36:06;102094.34;;;22.59;63.90
48824;BME280;34640;53.590;10.054;2022-08-11T07:38:47;102090.28;;;22.71;63.40
48824;BME280;34640;53.590;10.054;2022-08-11T07:41:23;102095.13;;;22.83;62.60
48824;BME280;34640;53.590;10.054;2022-08-11T07:44:01;102092.25;;;23.04;61.62
48824;BME280;34640;53.590;10.054;2022-08-11T07:46:41;102097.09;;;23.18;60.35
48824;BME280;34640;53.590;10.054;2022-08-11T07:49:34;102092.06;;;23.28;59.41
48824;BME280;34640;53.590;10.054;2022-08-11T07:52:28;102087.81;;;23.34;60.50
48824;BME280;34640;53.590;10.054;2022-08-11T07:55:07;102082.81;;;23.45;60.29
48824;BME280;34640;53.590;10.054;2022-08-11T07:57:45;102088.38;;;23.54;59.96
48824;BME280;34640;53.590;10.054;2022-08-11T08:00:52;102089.66;;;23.67;59.21
48824;BME280;34640;53.590;10.054;2022-08-11T08:03:53;102090.69;;;23.72;58.43
48824;BME280;34640;53.590;10.054;2022-08-11T08:06:44;102087.66;;;23.91;57.76
48824;BME280;34640;53.590;10.054;2022-08-11T08:09:35;102098.78;;;24.10;56.61
48824;BME280;34640;53.590;10.054;2022-08-11T08:12:28;102095.88;;;24.33;55.18
48824;BME280;34640;53.590;10.054;2022-08-11T08:15:21;102094.34;;;24.43;54.83
48824;BME280;34640;53.590;10.054;2022-08-11T08:18:12;102100.09;;;24.61;53.91
48824;BME280;34640;53.590;10.054;2022-08-11T08:20:57;102096.22;;;24.85;52.89
48824;BME280;34640;53.590;10.054;2022-08-11T08:23:44;102104.47;;;24.95;52.83
48824;BME280;34640;53.590;10.054;2022-08-11T08:26:24;102102.56;;;25.31;52.10
48824;BME280;34640;53.590;10.054;2022-08-11T08:29:25;102101.06;;;25.87;50.27
48824;BME280;34640;53.590;10.054;2022-08-11T08:32:16;102104.63;;;27.61;46.25
48824;BME280;34640;53.590;10.054;2022-08-11T08:34:51;102119.69;;;30.51;38.90
48824;BME280;34640;53.590;10.054;2022-08-11T08:37:26;102133.22;;;32.45;33.92
48824;BME280;34640;53.590;10.054;2022-08-11T08:40:18;102136.19;;;33.85;31.67
48824;BME280;34640;53.590;10.054;2022-08-11T08:42:53;102131.66;;;33.83;31.03
48824;BME280;34640;53.590;10.054;2022-08-11T08:45:33;102124.72;;;31.81;33.54
48824;BME280;34640;53.590;10.054;2022-08-11T08:48:10;102118.69;;;29.67;37.57
48824;BME280;34640;53.590;10.054;2022-08-11T08:50:51;102103.88;;;28.72;39.42
48824;BME280;34640;53.590;10.054;2022-08-11T08:53:48;102105.09;;;28.04;40.13
48824;BME280;34640;53.590;10.054;2022-08-11T08:56:26;102092.88;;;27.52;41.72
48824;BME280;34640;53.590;10.054;2022-08-11T08:59:01;102085.22;;;27.09;42.41
48824;BME280;34640;53.590;10.054;2022-08-11T09:01:41;102093.72;;;26.81;42.74
48824;BME280;34640;53.590;10.054;2022-08-11T09:04:19;102087.78;;;26.41;43.51
48824;BME280;34640;53.590;10.054;2022-08-11T09:06:53;102084.22;;;26.41;43.46
48824;BME280;34640;53.590;10.054;2022-08-11T09:09:27;102085.09;;;26.40;43.22
48824;BME280;34640;53.590;10.054;2022-08-11T09:12:01;102076.34;;;26.50;43.82
48824;BME280;34640;53.590;10.054;2022-08-11T09:14:37;102079.97;;;26.54;43.51
48824;BME280;34640;53.590;10.054;2022-08-11T09:17:32;102068.47;;;26.61;42.74
48824;BME280;34640;53.590;10.054;2022-08-11T09:20:10;102070.31;;;26.65;42.83
48824;BME280;34640;53.590;10.054;2022-08-11T09:22:46;102067.84;;;26.78;42.60
48824;BME280;34640;53.590;10.054;2022-08-11T09:25:59;102074.28;;;26.91;41.73
48824;BME280;34640;53.590;10.054;2022-08-11T09:28:51;102067.97;;;26.89;42.13
48824;BME280;34640;53.590;10.054;2022-08-11T09:31:24;102064.53;;;26.95;41.76
48824;BME280;34640;53.590;10.054;2022-08-11T09:33:59;102059.31;;;27.05;40.99
48824;BME280;34640;53.590;10.054;2022-08-11T09:36:33;102060.19;;;27.03;41.59
48824;BME280;34640;53.590;10.054;2022-08-11T09:39:25;102055.00;;;27.14;41.92
48824;BME280;34640;53.590;10.054;2022-08-11T09:42:19;102057.84;;;27.30;39.89
48824;BME280;34640;53.590;10.054;2022-08-11T09:44:55;102057.91;;;27.33;40.73
48824;BME280;34640;53.590;10.054;2022-08-11T09:47:29;102058.09;;;27.52;40.01
48824;BME280;34640;53.590;10.054;2022-08-11T09:50:04;102058.28;;;27.65;39.14
48824;BME280;34640;53.590;10.054;2022-08-11T09:52:39;102049.34;;;27.63;38.79
48824;BME280;34640;53.590;10.054;2022-08-11T09:55:33;102040.25;;;27.54;39.59
48824;BME280;34640;53.590;10.054;2022-08-11T09:58:06;102040.41;;;27.63;39.44
48824;BME280;34640;53.590;10.054;2022-08-11T10:01:09;102033.34;;;27.73;39.23
48824;BME280;34640;53.590;10.054;2022-08-11T10:04:00;102036.09;;;27.77;38.69
48824;BME280;34640;53.590;10.054;2022-08-11T10:06:38;102030.56;;;27.62;38.95
48824;BME280;34640;53.590;10.054;2022-08-11T10:09:36;102023.38;;;27.56;39.40
48824;BME280;34640;53.590;10.054;2022-08-11T10:12:13;102018.75;;;27.42;39.95
48824;BME280;34640;53.590;10.054;2022-08-11T10:14:52;102021.53;;;27.54;39.38
48824;BME280;34640;53.590;10.054;2022-08-11T10:17:46;102009.00;;;27.50;39.36
48824;BME280;34640;53.590;10.054;2022-08-11T10:20:36;102013.59;;;27.60;39.70
48824;BME280;34640;53.590;10.054;2022-08-11T10:23:11;102013.78;;;27.77;39.04
48824;BME280;34640;53.590;10.054;2022-08-11T10:26:03;102003.97;;;27.79;38.70
48824;BME280;34640;53.590;10.054;2022-08-11T10:28:54;102004.88;;;27.78;38.21
48824;BME280;34640;53.590;10.054;2022-08-11T10:31:44;102003.97;;;27.79;38.03
48824;BME280;34640;53.590;10.054;2022-08-11T10:34:46;102001.34;;;27.86;37.08
48824;BME280;34640;53.590;10.054;2022-08-11T10:37:25;102003.00;;;27.74;38.12
48824;BME280;34640;53.590;10.054;2022-08-11T10:40:26;102005.63;;;27.64;38.14
48824;BME280;34640;53.590;10.054;2022-08-11T10:43:00;101994.84;;;27.61;37.85
48824;BME280;34640;53.590;10.054;2022-08-11T10:45:45;101993.81;;;27.49;38.18
48824;BME280;34640;53.590;10.054;2022-08-11T10:48:38;101986.91;;;27.66;38.87
48824;BME280;34640;53.590;10.054;2022-08-11T10:51:13;101993.25;;;27.77;38.64
48824;BME280;34640;53.590;10.054;2022-08-11T10:53:47;101994.25;;;27.90;37.79
48824;BME280;34640;53.590;10.054;2022-08-11T10:56:44;101998.84;;;28.06;37.62
48824;BME280;34640;53.590;10.054;2022-08-11T10:59:34;101992.56;;;28.03;38.13
48824;BME280;34640;53.590;10.054;2022-08-11T11:02:10;101987.22;;;28.06;37.48
48824;BME280;34640;53.590;10.054;2022-08-11T11:04:57;101980.84;;;27.90;38.27
48824;BME280;34640;53.590;10.054;2022-08-11T11:07:37;101973.63;;;27.78;38.19
48824;BME280;34640;53.590;10.054;2022-08-11T11:10:15;101971.91;;;27.89;37.69
48824;BME280;34640;53.590;10.054;2022-08-11T11:12:53;101969.22;;;27.85;37.53
48824;BME280;34640;53.590;10.054;2022-08-11T11:15:45;101972.66;;;27.73;38.16
48824;BME280;34640;53.590;10.054;2022-08-11T11:18:37;101975.41;;;27.78;36.97
48824;BME280;34640;53.590;10.054;2022-08-11T11:21:14;101973.72;;;27.90;37.59
48824;BME280;34640;53.590;10.054;2022-08-11T11:23:56;101972.84;;;27.93;37.25
48824;BME280;34640;53.590;10.054;2022-08-11T11:26:41;101969.34;;;28.00;36.63
48824;BME280;34640;53.590;10.054;2022-08-11T11:29:41;101969.34;;;28.02;36.86
48824;BME280;34640;53.590;10.054;2022-08-11T11:32:23;101974.75;;;28.08;36.68
48824;BME280;34640;53.590;10.054;2022-08-11T11:35:12;101964.00;;;28.02;37.15
48824;BME280;34640;53.590;10.054;2022-08-11T11:37:49;101976.53;;;28.10;36.16
48824;BME280;34640;53.590;10.054;2022-08-11T11:40:37;101975.66;;;28.13;35.67
48824;BME280;34640;53.590;10.054;2022-08-11T11:43:11;101981.09;;;28.22;34.96
48824;BME280;34640;53.590;10.054;2022-08-11T11:45:46;101977.59;;;28.29;34.87
48824;BME280;34640;53.590;10.054;2022-08-11T11:48:19;101981.19;;;28.31;35.08
48824;BME280;34640;53.590;10.054;2022-08-11T11:50:52;101977.59;;;28.30;34.26
48824;BME280;34640;53.590;10.054;2022-08-11T11:53:29;101974.03;;;28.28;34.27
48824;BME280;34640;53.590;10.054;2022-08-11T11:56:03;101977.63;;;28.34;34.37
48824;BME280;34640;53.590;10.054;2022-08-11T11:58:38;101972.28;;;28.41;34.28
48824;BME280;34640;53.590;10.054;2022-08-11T12:01:31;101962.47;;;28.40;34.83
48824;BME280;34640;53.590;10.054;2022-08-11T12:04:05;101963.34;;;28.39;35.14
48824;BME280;34640;53.590;10.054;2022-08-11T12:06:39;101958.06;;;28.50;35.05
48824;BME280;34640;53.590;10.054;2022-08-11T12:09:14;101955.38;;;28.53;34.95
48824;BME280;34640;53.590;10.054;2022-08-11T12:11:49;101967.94;;;28.60;34.51
48824;BME280;34640;53.590;10.054;2022-08-11T12:14:40;101963.53;;;28.68;33.26
48824;BME280;34640;53.590;10.054;2022-08-11T12:17:14;101959.03;;;28.66;33.66
48824;BME280;34640;53.590;10.054;2022-08-11T12:19:47;101955.47;;;28.64;33.72
48824;BME280;34640;53.590;10.054;2022-08-11T12:22:21;101952.78;;;28.70;32.56
48824;BME280;34640;53.590;10.054;2022-08-11T12:25:12;101959.00;;;28.63;32.95
48824;BME280;34640;53.590;10.054;2022-08-11T12:28:03;101951.00;;;28.67;33.59
48824;BME280;34640;53.590;10.054;2022-08-11T12:30:37;101953.69;;;28.67;33.96
48824;BME280;34640;53.590;10.054;2022-08-11T12:33:18;101949.22;;;28.74;32.99
48824;BME280;34640;53.590;10.054;2022-08-11T12:35:57;101953.69;;;28.66;33.15
48824;BME280;34640;53.590;10.054;2022-08-11T12:38:32;101944.69;;;28.57;33.36
48824;BME280;34640;53.590;10.054;2022-08-11T12:41:08;101942.06;;;28.71;33.55
48824;BME280;34640;53.590;10.054;2022-08-11T12:44:01;101943.88;;;28.71;33.28
48824;BME280;34640;53.590;10.054;2022-08-11T12:47:08;101929.50;;;28.59;33.78
48824;BME280;34640;53.590;10.054;2022-08-11T12:49:44;101927.69;;;28.55;33.71
48824;BME280;34640;53.590;10.054;2022-08-11T12:52:53;101923.31;;;28.73;34.04
48824;BME280;34640;53.590;10.054;2022-08-11T12:55:27;101929.59;;;28.84;33.85
48824;BME280;34640;53.590;10.054;2022-08-11T12:58:39;101910.78;;;28.72;34.27
48824;BME280;34640;53.590;10.054;2022-08-11T13:01:12;101906.31;;;28.68;33.82
48824;BME280;34640;53.590;10.054;2022-08-11T13:04:04;101901.84;;;28.70;33.96
48824;BME280;34640;53.590;10.054;2022-08-11T13:06:59;101901.84;;;28.71;34.19
48824;BME280;34640;53.590;10.054;2022-08-11T13:09:33;101903.72;;;28.89;33.46
48824;BME280;34640;53.590;10.054;2022-08-11T13:12:07;101902.84;;;28.85;32.75
48824;BME280;34640;53.590;10.054;2022-08-11T13:14:59;101895.69;;;28.87;32.26
48824;BME280;34640;53.590;10.054;2022-08-11T13:17:33;101884.06;;;28.85;33.11
48824;BME280;34640;53.590;10.054;2022-08-11T13:20:17;101890.25;;;28.83;34.27
48824;BME280;34640;53.590;10.054;2022-08-11T13:22:53;101895.69;;;28.89;34.21
48824;BME280;34640;53.590;10.054;2022-08-11T13:25:29;101882.28;;;28.86;33.87
48824;BME280;34640;53.590;10.054;2022-08-11T13:28:04;101886.75;;;28.99;33.46
48824;BME280;34640;53.590;10.054;2022-08-11T13:30:38;101887.66;;;29.04;32.87
48824;BME280;34640;53.590;10.054;2022-08-11T13:33:30;101882.28;;;28.94;33.08
48824;BME280;34640;53.590;10.054;2022-08-11T13:36:05;101878.63;;;28.79;33.15
48824;BME280;34640;53.590;10.054;2022-08-11T13:38:41;101872.44;;;28.88;32.91
48824;BME280;34640;53.590;10.054;2022-08-11T13:41:21;101868.78;;;28.72;33.76
48824;BME280;34640;53.590;10.054;2022-08-11T13:44:12;101872.31;;;28.60;34.64
48824;BME280;34640;53.590;10.054;2022-08-11T13:46:50;101869.63;;;28.57;34.88
48824;BME280;34640;53.590;10.054;2022-08-11T13:49:25;101867.84;;;28.63;34.48
48824;BME280;34640;53.590;10.054;2022-08-11T13:51:59;101858.94;;;28.76;34.49
48824;BME280;34640;53.590;10.054;2022-08-11T13:54:35;101861.63;;;28.73;34.04
48824;BME280;34640;53.590;10.054;2022-08-11T13:57:11;101849.09;;;28.66;33.89
48824;BME280;34640;53.590;10.054;2022-08-11T14:00:07;101859.78;;;28.55;34.70
48824;BME280;34640;53.590;10.054;2022-08-11T14:02:59;101858.03;;;28.69;34.16
48824;BME280;34640;53.590;10.054;2022-08-11T14:05:36;101855.38;;;28.80;33.45
48824;BME280;34640;53.590;10.054;2022-08-11T14:08:20;101855.38;;;28.78;34.18
48824;BME280;34640;53.590;10.054;2022-08-11T14:11:12;101846.50;;;28.85;33.95
48824;BME280;34640;53.590;10.054;2022-08-11T14:14:30;101850.09;;;28.86;32.99
48824;BME280;34640;53.590;10.054;2022-08-11T14:17:06;101845.63;;;28.89;33.14
48824;BME280;34640;53.590;10.054;2022-08-11T14:19:43;101848.22;;;28.82;33.54
48824;BME280;34640;53.590;10.054;2022-08-11T14:22:20;101842.03;;;28.89;33.84
48824;BME280;34640;53.590;10.054;2022-08-11T14:24:53;101840.19;;;28.80;33.16
48824;BME280;34640;53.590;10.054;2022-08-11T14:27:28;101831.22;;;28.71;33.99
48824;BME280;34640;53.590;10.054;2022-08-11T14:30:22;101839.28;;;28.68;33.64
48824;BME280;34640;53.590;10.054;2022-08-11T14:33:13;101825.81;;;28.57;33.92
48824;BME280;34640;53.590;10.054;2022-08-11T14:35:49;101830.34;;;28.66;34.17
48824;BME280;34640;53.590;10.054;2022-08-11T14:38:22;101823.19;;;28.69;34.02
48824;BME280;34640;53.590;10.054;2022-08-11T14:40:55;101821.41;;;28.76;34.20
48824;BME280;34640;53.590;10.054;2022-08-11T14:43:47;101829.53;;;28.88;33.93
48824;BME280;34640;53.590;10.054;2022-08-11T14:46:45;101819.69;;;28.88;33.82
48824;BME280;34640;53.590;10.054;2022-08-11T14:49:56;101825.94;;;28.97;34.21
48824;BME280;34640;53.590;10.054;2022-08-11T14:52:48;101814.31;;;29.01;33.20